Terminal Aerodrome Forecast
Issued by NWS Sterling, VA

Current Version | Previous Version | Graphics & Text | Print | Product List | Glossary On
Versions: 1 2 3 4 5 6 7 8 9 10 11 12 13 14 15 16 17 18 19 20 21 22 23 24 25
000
FTUS41 KLWX 241100
TAFDCA
TAF
KDCA 241135Z 2412/2512 35005KT P6SM FEW050 OVC110
     FM241300 36010KT P6SM SCT060 BKN100
     FM250300 35007KT P6SM SCT040 SCT100=

USA.gov is the U.S. government's official web portal to all federal, state and local government web resources and services.